Time;durP1;ratioP1;P1;durP2;ratioP2;P2;SDS_P1;SDS_P2;PMS_P1;PMS_P2;Temp;Humidity;BMP_temperature;BMP_pressure;BME280_temperature;BME280_humidity;BME280_pressure;Samples;Min_cycle;Max_cycle;Signal;HPM_P1;HPM_P2
2023/10/26 00:02:05;;;;;;;21.03;17.13;;;11.50;99.90;;;;;;5016453;28;20207;-78
2023/10/26 00:04:33;;;;;;;23.43;16.93;;;11.40;99.90;;;;;;5016483;28;20210;-78
2023/10/26 00:07:00;;;;;;;25.40;18.53;;;11.40;99.90;;;;;;5022496;28;20214;-78
2023/10/26 00:09:28;;;;;;;25.03;17.50;;;11.40;99.90;;;;;;5037083;28;20195;-78
2023/10/26 00:11:55;;;;;;;23.43;17.57;;;11.40;99.90;;;;;;5038571;28;20193;-78
2023/10/26 00:14:23;;;;;;;28.93;19.03;;;11.40;99.90;;;;;;5017063;28;20204;-78
2023/10/26 00:16:50;;;;;;;29.77;20.83;;;11.30;99.90;;;;;;5017902;28;20223;-78
2023/10/26 00:19:19;;;;;;;29.20;18.70;;;11.30;99.90;;;;;;5017861;28;20199;-78
2023/10/26 00:21:46;;;;;;;29.63;19.37;;;11.30;99.90;;;;;;5010097;28;20195;-78
2023/10/26 00:24:14;;;;;;;27.77;18.27;;;11.30;99.90;;;;;;5008005;28;20202;-78
2023/10/26 00:26:42;;;;;;;26.70;19.93;;;11.20;99.90;;;;;;5046098;28;20233;-78
2023/10/26 00:29:09;;;;;;;25.43;19.13;;;11.30;99.90;;;;;;5011408;28;20204;-78
2023/10/26 00:31:37;;;;;;;21.37;16.07;;;11.30;99.90;;;;;;5012409;28;20207;-78
2023/10/26 00:34:05;;;;;;;22.20;14.87;;;11.30;99.90;;;;;;5011945;28;20207;-78
2023/10/26 00:36:34;;;;;;;19.53;14.53;;;11.20;99.90;;;;;;5029171;28;20222;-78
2023/10/26 00:39:02;;;;;;;20.60;15.03;;;11.20;99.90;;;;;;5030916;28;20195;-78
2023/10/26 00:41:32;;;;;;;22.07;14.70;;;11.20;99.90;;;;;;5016689;28;20219;-78
2023/10/26 00:43:59;;;;;;;20.00;14.37;;;11.30;99.90;;;;;;5011641;28;20199;-78
2023/10/26 00:46:27;;;;;;;19.47;14.73;;;11.20;99.90;;;;;;5018634;28;20219;-78
2023/10/26 00:48:54;;;;;;;19.90;14.23;;;11.20;99.90;;;;;;5018425;28;20638;-78
2023/10/26 00:51:22;;;;;;;18.70;14.23;;;11.20;99.90;;;;;;5019841;28;20657;-78
2023/10/26 00:53:51;;;;;;;17.27;13.27;;;11.20;99.90;;;;;;5018630;28;20525;-78
2023/10/26 00:56:22;;;;;;;18.10;14.90;;;11.20;99.90;;;;;;5013511;28;20218;-78
2023/10/26 00:58:50;;;;;;;15.60;13.00;;;11.10;99.90;;;;;;5015154;28;20218;-77
2023/10/26 01:01:18;;;;;;;16.63;14.83;;;11.20;99.90;;;;;;5017952;28;20218;-78
2023/10/26 01:03:47;;;;;;;18.23;13.27;;;11.10;99.90;;;;;;5025729;28;20199;-78
2023/10/26 01:06:14;;;;;;;20.47;15.83;;;11.20;99.90;;;;;;5007423;28;20230;-78
2023/10/26 01:08:42;;;;;;;20.47;15.43;;;11.20;99.90;;;;;;5029698;28;20199;-78
2023/10/26 01:11:11;;;;;;;21.80;15.63;;;11.20;99.90;;;;;;5014623;28;20203;-78
2023/10/26 01:13:38;;;;;;;18.83;14.63;;;11.20;99.90;;;;;;5014258;28;20205;-78
2023/10/26 01:16:07;;;;;;;20.63;15.10;;;11.20;99.90;;;;;;5017983;28;20226;-78
2023/10/26 01:18:34;;;;;;;15.47;13.77;;;11.20;99.90;;;;;;5017457;28;20198;-78
2023/10/26 01:21:02;;;;;;;18.50;14.67;;;11.20;99.90;;;;;;5004151;28;20223;-78
2023/10/26 01:23:31;;;;;;;17.50;13.80;;;11.10;99.90;;;;;;5020038;28;20195;-78
2023/10/26 01:25:59;;;;;;;16.90;13.40;;;11.10;99.90;;;;;;5020199;28;20214;-78
2023/10/26 01:28:26;;;;;;;16.63;14.13;;;11.10;99.90;;;;;;5008261;28;20191;-78
2023/10/26 01:30:54;;;;;;;16.53;12.83;;;11.10;99.90;;;;;;5018528;28;20202;-78
2023/10/26 01:33:21;;;;;;;14.97;12.20;;;11.20;99.90;;;;;;5024803;28;20205;-78
2023/10/26 01:35:49;;;;;;;16.60;12.63;;;11.10;99.90;;;;;;5005010;28;20226;-78
2023/10/26 01:38:16;;;;;;;17.53;13.00;;;11.10;99.90;;;;;;5039484;28;20218;-78
2023/10/26 01:40:45;;;;;;;15.07;12.90;;;11.10;99.90;;;;;;5010972;28;20579;-78
2023/10/26 01:43:13;;;;;;;13.90;12.43;;;11.10;99.90;;;;;;5008277;28;20203;-78
2023/10/26 01:45:40;;;;;;;15.00;12.80;;;11.10;99.90;;;;;;5012921;28;20227;-78
2023/10/26 01:48:08;;;;;;;16.27;14.17;;;11.10;99.90;;;;;;5015141;28;20202;-78
2023/10/26 01:50:35;;;;;;;16.03;12.97;;;11.10;99.90;;;;;;5009738;28;20198;-78
2023/10/26 01:53:03;;;;;;;17.07;13.50;;;11.10;99.90;;;;;;5012751;28;20198;-78
2023/10/26 01:55:30;;;;;;;16.10;13.93;;;11.10;99.90;;;;;;5030875;28;20223;-78
2023/10/26 01:57:59;;;;;;;16.73;13.90;;;11.10;99.90;;;;;;5024790;28;20190;-78
2023/10/26 02:00:26;;;;;;;16.10;13.60;;;11.10;99.90;;;;;;5019069;28;20207;-78
2023/10/26 02:02:55;;;;;;;17.00;14.07;;;11.10;99.90;;;;;;5027660;28;20194;-78
2023/10/26 02:05:23;;;;;;;15.37;13.57;;;11.10;99.90;;;;;;5016025;28;20568;-78
2023/10/26 02:07:50;;;;;;;15.20;13.27;;;11.10;99.90;;;;;;5017407;28;20214;-78
2023/10/26 02:10:19;;;;;;;16.40;13.33;;;11.10;99.90;;;;;;5013032;28;20201;-78
2023/10/26 02:12:47;;;;;;;17.93;14.43;;;11.10;99.90;;;;;;5019175;28;20202;-78
2023/10/26 02:15:16;;;;;;;18.93;15.40;;;11.10;99.90;;;;;;5011603;28;20199;-78
2023/10/26 02:17:43;;;;;;;20.27;15.93;;;11.20;99.90;;;;;;5013886;28;20202;-78
2023/10/26 02:20:11;;;;;;;20.50;15.97;;;11.20;99.90;;;;;;5015140;28;20206;-78
2023/10/26 02:22:39;;;;;;;21.27;16.17;;;11.10;99.90;;;;;;5018235;28;20199;-78
2023/10/26 02:25:07;;;;;;;18.27;15.20;;;11.00;99.90;;;;;;5013445;28;20199;-78
2023/10/26 02:27:35;;;;;;;20.63;15.67;;;11.00;99.90;;;;;;5024588;28;20206;-78
2023/10/26 02:30:03;;;;;;;17.47;15.17;;;11.00;99.90;;;;;;5019279;28;20202;-78
2023/10/26 02:32:32;;;;;;;20.17;16.03;;;11.00;99.90;;;;;;5019167;28;20192;-78
2023/10/26 02:35:00;;;;;;;19.10;14.60;;;11.00;99.90;;;;;;5007636;28;20260;-78
2023/10/26 02:37:27;;;;;;;16.93;13.90;;;11.00;99.90;;;;;;5042110;28;20231;-78
2023/10/26 02:39:54;;;;;;;18.30;14.60;;;11.00;99.90;;;;;;5002426;28;20557;-78
2023/10/26 02:42:22;;;;;;;15.40;13.20;;;11.00;99.90;;;;;;5013020;28;20226;-78
2023/10/26 02:44:49;;;;;;;16.63;14.53;;;11.00;99.90;;;;;;5039151;28;20207;-77
2023/10/26 02:47:17;;;;;;;16.63;13.40;;;11.00;99.90;;;;;;5013746;28;20223;-76
2023/10/26 02:49:46;;;;;;;14.57;13.03;;;11.00;99.90;;;;;;5020552;28;20214;-76
2023/10/26 02:52:13;;;;;;;15.13;13.13;;;11.00;99.90;;;;;;5020039;28;20265;-77
2023/10/26 02:54:41;;;;;;;15.40;13.60;;;10.90;99.90;;;;;;5013537;28;20206;-76
2023/10/26 02:57:08;;;;;;;15.47;12.80;;;11.00;99.90;;;;;;5009766;28;20218;-77
2023/10/26 02:59:36;;;;;;;20.40;14.80;;;11.00;99.90;;;;;;5023202;28;20203;-77
2023/10/26 03:02:05;;;;;;;17.30;14.43;;;10.90;99.90;;;;;;5021239;28;20215;-77
2023/10/26 03:04:34;;;;;;;19.87;15.77;;;10.90;99.90;;;;;;5017708;28;20210;-76
2023/10/26 03:07:03;;;;;;;16.07;13.77;;;10.90;99.90;;;;;;5010765;28;20222;-76
2023/10/26 03:09:30;;;;;;;17.77;15.30;;;10.90;99.90;;;;;;5020843;28;20190;-77
2023/10/26 03:11:58;;;;;;;16.47;14.67;;;10.90;99.90;;;;;;5020123;28;20537;-77
2023/10/26 03:14:25;;;;;;;18.10;15.27;;;10.90;99.90;;;;;;5028766;28;20290;-76
2023/10/26 03:16:53;;;;;;;17.83;14.77;;;10.90;99.90;;;;;;5020733;28;20227;-77
2023/10/26 03:19:21;;;;;;;18.53;14.43;;;11.00;99.90;;;;;;5011459;28;20203;-77
2023/10/26 03:21:48;;;;;;;15.77;13.53;;;10.90;99.90;;;;;;5023838;28;20207;-77
2023/10/26 03:24:17;;;;;;;19.00;14.47;;;10.90;99.90;;;;;;5011131;28;20561;-77
2023/10/26 03:26:44;;;;;;;14.13;12.63;;;10.90;99.90;;;;;;5010408;28;20239;-77
2023/10/26 03:29:12;;;;;;;15.60;13.40;;;10.90;99.90;;;;;;5013548;28;20199;-77
2023/10/26 03:31:41;;;;;;;15.83;14.00;;;11.00;99.90;;;;;;5010709;28;20199;-77
2023/10/26 03:34:08;;;;;;;15.97;13.93;;;10.90;99.90;;;;;;5024032;28;20195;-77
2023/10/26 03:36:36;;;;;;;18.67;15.17;;;10.90;99.90;;;;;;5017142;28;20227;-77
2023/10/26 03:39:05;;;;;;;14.30;12.27;;;11.00;99.90;;;;;;5014603;28;20187;-77
2023/10/26 03:41:34;;;;;;;17.20;13.23;;;11.00;99.90;;;;;;5012942;28;20219;-77
2023/10/26 03:44:01;;;;;;;17.60;13.97;;;11.00;99.90;;;;;;5035853;28;20189;-77
2023/10/26 03:46:29;;;;;;;14.63;13.00;;;11.00;99.90;;;;;;5013841;28;20211;-77
2023/10/26 03:48:56;;;;;;;14.97;12.97;;;11.00;99.90;;;;;;4999445;28;20192;-77
2023/10/26 03:51:24;;;;;;;17.10;13.50;;;10.90;99.90;;;;;;5010512;28;20195;-77
2023/10/26 03:53:51;;;;;;;14.40;12.40;;;11.00;99.90;;;;;;5014285;28;20758;-79
2023/10/26 03:56:19;;;;;;;14.67;12.87;;;11.00;99.90;;;;;;5014586;28;20223;-79
2023/10/26 03:58:48;;;;;;;16.30;12.60;;;11.00;99.90;;;;;;5037647;28;20203;-79
2023/10/26 04:01:15;;;;;;;15.87;12.90;;;11.00;99.90;;;;;;5030043;28;20207;-79
2023/10/26 04:03:43;;;;;;;14.93;12.03;;;11.00;99.90;;;;;;5034770;28;20198;-79
2023/10/26 04:06:10;;;;;;;14.27;12.47;;;11.00;99.90;;;;;;5018421;28;20218;-79
2023/10/26 04:08:38;;;;;;;17.37;13.30;;;11.00;99.90;;;;;;5012982;28;20208;-79
2023/10/26 04:11:05;;;;;;;13.57;11.60;;;10.90;99.90;;;;;;5040270;28;20194;-77
2023/10/26 04:13:32;;;;;;;14.33;11.87;;;10.90;99.90;;;;;;5007254;28;20195;-77
2023/10/26 04:16:01;;;;;;;16.67;13.33;;;11.00;99.90;;;;;;5004898;28;20701;-77
2023/10/26 04:18:29;;;;;;;20.63;12.93;;;11.00;99.90;;;;;;5033051;28;20223;-76
2023/10/26 04:20:57;;;;;;;17.17;13.00;;;11.00;99.90;;;;;;5001932;28;20200;-77
2023/10/26 04:23:24;;;;;;;14.63;12.27;;;11.00;99.90;;;;;;5015007;28;20230;-76
2023/10/26 04:25:52;;;;;;;17.37;13.70;;;11.00;99.90;;;;;;5021396;28;20221;-77
2023/10/26 04:28:19;;;;;;;15.33;13.43;;;11.00;99.90;;;;;;5012585;28;20195;-77
2023/10/26 04:30:47;;;;;;;18.73;14.73;;;10.90;99.90;;;;;;5028974;28;20200;-79
2023/10/26 04:33:17;;;;;;;18.17;14.10;;;10.90;99.90;;;;;;5019342;28;20258;-79
2023/10/26 04:35:46;;;;;;;17.60;14.50;;;11.00;99.90;;;;;;5021291;28;20587;-78
2023/10/26 04:38:14;;;;;;;18.50;14.27;;;11.00;99.90;;;;;;5017370;28;20190;-79
2023/10/26 04:40:43;;;;;;;17.90;14.53;;;11.10;99.90;;;;;;5016831;28;20206;-79
2023/10/26 04:43:10;;;;;;;19.53;15.10;;;11.10;99.90;;;;;;5036675;28;20218;-79
2023/10/26 04:45:38;;;;;;;17.67;14.47;;;11.10;99.90;;;;;;5019508;28;20215;-79
2023/10/26 04:48:05;;;;;;;20.70;16.57;;;11.10;99.90;;;;;;5012031;28;20203;-79
2023/10/26 04:50:34;;;;;;;19.00;15.60;;;11.10;99.90;;;;;;5026458;28;20211;-79
2023/10/26 04:53:02;;;;;;;20.10;15.73;;;11.10;99.90;;;;;;5045687;28;20202;-80
2023/10/26 04:55:33;;;;;;;17.53;15.23;;;11.10;99.90;;;;;;5035127;28;20207;-79
2023/10/26 04:58:01;;;;;;;17.23;14.73;;;11.20;99.90;;;;;;5033307;28;20198;-80
2023/10/26 05:00:29;;;;;;;16.70;14.87;;;11.10;99.90;;;;;;5040860;28;20191;-80
2023/10/26 05:02:57;;;;;;;16.30;14.60;;;11.00;99.90;;;;;;5047695;28;20218;-78
2023/10/26 05:05:24;;;;;;;18.97;15.20;;;11.00;99.90;;;;;;5024258;28;20214;-78
2023/10/26 05:07:53;;;;;;;19.40;16.30;;;11.10;99.90;;;;;;5035016;28;20195;-77
2023/10/26 05:10:21;;;;;;;19.70;15.20;;;11.10;99.90;;;;;;5015977;28;20200;-77
2023/10/26 05:12:49;;;;;;;19.07;15.13;;;11.10;99.90;;;;;;5021392;28;20196;-77
2023/10/26 05:15:18;;;;;;;18.50;15.57;;;11.00;99.90;;;;;;5029406;28;20198;-77
2023/10/26 05:17:46;;;;;;;17.27;15.43;;;11.00;99.90;;;;;;5053358;28;20222;-77
2023/10/26 05:20:13;;;;;;;21.97;17.53;;;11.00;99.90;;;;;;5017895;28;20200;-77
2023/10/26 05:22:41;;;;;;;19.27;16.63;;;11.00;99.90;;;;;;5022310;28;20220;-77
2023/10/26 05:25:11;;;;;;;20.60;17.57;;;11.00;99.90;;;;;;5015501;28;20199;-79
2023/10/26 05:27:38;;;;;;;21.57;17.43;;;10.90;99.90;;;;;;5023916;28;20209;-80
2023/10/26 05:30:07;;;;;;;21.80;17.27;;;11.00;99.90;;;;;;5021618;28;20210;-80
2023/10/26 05:32:35;;;;;;;20.47;17.20;;;11.00;99.90;;;;;;5021017;28;20221;-80
2023/10/26 05:35:03;;;;;;;21.00;16.10;;;11.00;99.90;;;;;;5044499;28;20202;-80
2023/10/26 05:37:31;;;;;;;23.07;18.07;;;11.00;99.90;;;;;;5016881;28;20227;-80
2023/10/26 05:39:58;;;;;;;20.87;17.70;;;11.00;99.90;;;;;;5032158;28;20191;-80
2023/10/26 05:42:27;;;;;;;21.43;17.27;;;11.00;99.90;;;;;;5017364;28;20222;-80
2023/10/26 05:44:56;;;;;;;20.30;17.60;;;11.10;99.90;;;;;;5041912;28;20210;-79
